createdAt,value
2019-03-19T00:01:06.001Z,12.17
2019-03-19T00:03:36.400Z,12.13
2019-03-19T00:06:06.829Z,17.35
2019-03-19T00:08:37.222Z,13.90
2019-03-19T00:11:07.747Z,14.13
2019-03-19T00:13:38.204Z,14.43
2019-03-19T00:16:08.603Z,15.13
2019-03-19T00:18:39.032Z,15.50
2019-03-19T00:21:09.432Z,14.77
2019-03-19T00:23:39.807Z,15.93
2019-03-19T00:26:10.263Z,16.03
2019-03-19T00:28:40.700Z,15.83
2019-03-19T00:31:11.135Z,15.40
2019-03-19T00:33:41.615Z,15.77
2019-03-19T00:36:11.986Z,15.87
2019-03-19T00:38:42.335Z,14.87
2019-03-19T00:41:12.732Z,15.80
2019-03-19T00:43:43.169Z,15.97
2019-03-19T00:46:13.632Z,20.80
2019-03-19T00:48:43.869Z,19.50
2019-03-19T00:51:14.297Z,17.30
2019-03-19T00:53:44.646Z,19.13
2019-03-19T00:56:15.043Z,19.57
2019-03-19T00:58:45.496Z,18.77
2019-03-19T01:01:15.925Z,21.17
2019-03-19T01:03:46.373Z,25.33
2019-03-19T01:06:16.808Z,22.33
2019-03-19T01:08:47.339Z,21.23
2019-03-19T01:11:17.792Z,20.83
2019-03-19T01:13:48.214Z,22.40
2019-03-19T01:16:18.570Z,22.33
2019-03-19T01:18:48.980Z,23.47
2019-03-19T01:21:19.400Z,22.60
2019-03-19T01:23:49.867Z,22.53
2019-03-19T01:26:20.317Z,22.23
2019-03-19T01:28:50.660Z,22.00
2019-03-19T01:31:21.058Z,22.57
2019-03-19T01:33:52.052Z,22.90
2019-03-19T01:36:22.904Z,22.93
2019-03-19T01:38:53.400Z,20.73
2019-03-19T01:41:23.793Z,23.30
2019-03-19T01:43:54.218Z,21.73
2019-03-19T01:46:24.602Z,22.87
2019-03-19T01:48:55.004Z,23.50
2019-03-19T01:51:25.383Z,24.33
2019-03-19T01:53:55.746Z,25.77
2019-03-19T01:56:26.185Z,24.37
2019-03-19T01:58:56.553Z,24.93
2019-03-19T02:01:27.108Z,24.30
2019-03-19T02:03:57.520Z,32.67
2019-03-19T02:06:27.855Z,28.30
2019-03-19T02:08:58.308Z,27.77
2019-03-19T02:11:28.852Z,27.60
2019-03-19T02:13:59.209Z,27.73
2019-03-19T02:16:29.634Z,28.37
2019-03-19T02:19:00.012Z,26.97
2019-03-19T02:21:30.451Z,26.50
2019-03-19T02:24:00.814Z,28.47
2019-03-19T02:26:31.241Z,28.63
2019-03-19T02:29:01.633Z,28.07
2019-03-19T02:31:32.026Z,28.80
2019-03-19T02:34:02.436Z,28.53
2019-03-19T02:36:32.801Z,30.60
2019-03-19T02:39:03.229Z,45.95
2019-03-19T02:41:33.635Z,31.77
2019-03-19T02:44:04.006Z,29.03
2019-03-19T02:46:34.387Z,35.43
2019-03-19T02:49:04.765Z,32.67
2019-03-19T02:51:35.143Z,32.90
2019-03-19T02:54:05.586Z,33.50
2019-03-19T02:56:35.946Z,33.73
2019-03-19T02:59:06.390Z,33.43
2019-03-19T03:01:36.791Z,32.93
2019-03-19T03:04:07.221Z,32.27
2019-03-19T03:06:37.676Z,32.23
2019-03-19T03:09:08.117Z,33.97
2019-03-19T03:11:38.583Z,31.80
2019-03-19T03:14:08.985Z,29.93
2019-03-19T03:16:39.397Z,29.13
2019-03-19T03:19:09.849Z,30.57
2019-03-19T03:21:40.242Z,42.98
2019-03-19T03:24:10.682Z,34.47
2019-03-19T03:26:47.772Z,37.07
2019-03-19T03:29:13.226Z,31.77
2019-03-19T03:31:43.518Z,32.83
2019-03-19T03:34:13.989Z,34.63
2019-03-19T03:36:44.377Z,32.73
2019-03-19T03:39:14.821Z,30.97
2019-03-19T03:41:45.236Z,31.73
2019-03-19T03:44:15.615Z,29.90
2019-03-19T03:46:46.025Z,29.23
2019-03-19T03:49:16.431Z,28.47
2019-03-19T03:51:46.793Z,28.10
2019-03-19T03:54:17.250Z,28.23
2019-03-19T03:57:00.961Z,29.43
2019-03-19T03:59:19.727Z,27.63
2019-03-19T04:01:50.144Z,26.83
2019-03-19T04:04:20.590Z,28.23
2019-03-19T04:06:50.939Z,28.53
2019-03-19T04:09:21.414Z,29.70
2019-03-19T04:11:51.920Z,33.27
2019-03-19T04:14:22.349Z,37.27
2019-03-19T04:16:52.717Z,35.77
2019-03-19T04:19:23.099Z,30.67
2019-03-19T04:21:53.587Z,28.63
2019-03-19T04:24:23.961Z,32.07
2019-03-19T04:26:54.469Z,32.57
2019-03-19T04:29:24.869Z,29.97
2019-03-19T04:31:55.207Z,29.33
2019-03-19T04:34:25.670Z,28.90
2019-03-19T04:36:56.024Z,28.23
2019-03-19T04:39:26.624Z,32.83
2019-03-19T04:41:57.131Z,30.20
2019-03-19T04:44:28.634Z,31.50
2019-03-19T04:46:58.980Z,33.77
2019-03-19T04:49:29.418Z,29.57
2019-03-19T04:51:59.866Z,27.70
2019-03-19T04:54:30.249Z,26.67
2019-03-19T04:57:00.655Z,27.20
2019-03-19T04:59:32.325Z,25.90
2019-03-19T05:02:02.761Z,23.93
2019-03-19T05:04:33.174Z,25.23
2019-03-19T05:07:03.556Z,27.13
2019-03-19T05:09:33.954Z,25.83
2019-03-19T05:12:04.480Z,26.50
2019-03-19T05:14:34.904Z,30.83
2019-03-19T05:17:05.333Z,36.23
2019-03-19T05:19:35.685Z,32.30
2019-03-19T05:22:08.994Z,32.00
2019-03-19T05:24:39.357Z,29.87
2019-03-19T05:27:11.315Z,33.83
2019-03-19T05:29:41.857Z,30.53
2019-03-19T05:32:12.396Z,32.10
2019-03-19T05:34:47.331Z,29.50
2019-03-19T05:37:23.054Z,28.63
2019-03-19T05:39:53.535Z,26.73
2019-03-19T05:42:24.059Z,28.57
2019-03-19T05:44:54.624Z,26.80
2019-03-19T05:47:25.494Z,27.70
2019-03-19T05:49:56.518Z,26.80
2019-03-19T05:52:40.165Z,28.80
2019-03-19T05:55:10.489Z,25.70
2019-03-19T05:57:49.594Z,33.95
2019-03-19T06:00:17.681Z,26.70
2019-03-19T06:02:53.021Z,26.30
2019-03-19T06:05:23.420Z,25.97
2019-03-19T06:07:53.879Z,28.60
2019-03-19T06:10:25.996Z,25.37
2019-03-19T06:12:57.022Z,24.10
2019-03-19T06:15:27.657Z,23.03
2019-03-19T06:18:00.398Z,22.97
2019-03-19T06:20:34.771Z,23.80
2019-03-19T06:23:06.352Z,22.37
2019-03-19T06:25:37.009Z,23.87
2019-03-19T06:28:13.508Z,22.13
2019-03-19T06:30:44.104Z,21.97
2019-03-19T06:33:21.722Z,34.05
2019-03-19T06:35:52.407Z,24.60
2019-03-19T06:38:22.908Z,21.57
2019-03-19T06:40:57.888Z,21.63
2019-03-19T06:43:36.822Z,19.80
2019-03-19T06:46:07.392Z,19.97
2019-03-19T06:48:37.849Z,20.43
2019-03-19T06:51:08.342Z,19.53
2019-03-19T06:53:38.844Z,18.27
2019-03-19T06:56:09.254Z,17.93
2019-03-19T06:58:39.707Z,17.47
2019-03-19T07:01:10.240Z,16.07
2019-03-19T07:03:40.559Z,17.13
2019-03-19T07:06:11.020Z,16.20
2019-03-19T07:08:41.554Z,15.33
2019-03-19T07:11:17.937Z,15.10
2019-03-19T07:13:48.473Z,17.10
2019-03-19T07:16:18.918Z,17.03
2019-03-19T07:18:49.321Z,16.33
2019-03-19T07:21:19.807Z,14.83
2019-03-19T07:23:50.326Z,15.10
2019-03-19T07:26:20.655Z,14.10
2019-03-19T07:28:51.030Z,13.50
2019-03-19T07:31:30.360Z,14.50
2019-03-19T07:33:53.498Z,11.63
2019-03-19T07:36:23.984Z,11.53
2019-03-19T07:38:54.368Z,11.20
2019-03-19T07:41:24.898Z,11.37
2019-03-19T07:43:55.282Z,11.80
2019-03-19T07:46:25.845Z,12.80
2019-03-19T07:48:58.229Z,11.17
2019-03-19T07:51:28.709Z,12.33
2019-03-19T07:53:59.079Z,12.10
2019-03-19T07:56:29.466Z,11.20
2019-03-19T07:58:59.960Z,11.50
2019-03-19T08:01:30.324Z,11.70
2019-03-19T08:04:00.862Z,12.70
2019-03-19T08:06:32.747Z,12.27
2019-03-19T08:09:04.774Z,11.43
2019-03-19T08:11:35.184Z,12.03
2019-03-19T08:14:05.694Z,11.20
2019-03-19T08:16:36.061Z,11.37
2019-03-19T08:19:06.430Z,11.60
2019-03-19T08:21:36.883Z,11.20
2019-03-19T08:24:07.292Z,11.90
2019-03-19T08:26:37.716Z,13.30
2019-03-19T08:29:08.498Z,12.23
2019-03-19T08:31:38.941Z,10.53
2019-03-19T08:34:09.371Z,11.00
2019-03-19T08:36:39.749Z,10.33
2019-03-19T08:39:10.254Z,9.77
2019-03-19T08:41:40.723Z,10.57
2019-03-19T08:44:11.124Z,10.57
2019-03-19T08:46:41.519Z,10.53
2019-03-19T08:49:12.142Z,8.70
2019-03-19T08:51:42.506Z,8.57
2019-03-19T08:54:14.284Z,9.00
2019-03-19T08:56:44.691Z,8.27
2019-03-19T08:59:15.074Z,8.90
2019-03-19T09:01:47.341Z,8.20
2019-03-19T09:04:17.705Z,8.13
2019-03-19T09:06:48.115Z,8.23
2019-03-19T09:09:18.589Z,7.67
2019-03-19T09:11:49.031Z,8.67
2019-03-19T09:14:19.488Z,9.27
2019-03-19T09:16:50.038Z,8.10
2019-03-19T09:19:20.530Z,7.63
2019-03-19T09:21:50.913Z,7.10
2019-03-19T09:24:21.326Z,7.10
2019-03-19T09:26:51.696Z,6.97
2019-03-19T09:29:22.135Z,6.93
2019-03-19T09:31:52.508Z,6.77
2019-03-19T09:34:22.985Z,6.07
2019-03-19T09:36:57.261Z,6.40
2019-03-19T09:39:25.533Z,6.17
2019-03-19T09:41:55.872Z,6.30
2019-03-19T09:44:26.293Z,6.43
2019-03-19T09:46:56.646Z,5.90
2019-03-19T09:49:27.123Z,6.07
2019-03-19T09:51:59.010Z,5.67
2019-03-19T09:54:32.197Z,6.10
2019-03-19T09:57:02.163Z,6.17
2019-03-19T09:59:32.628Z,6.00
2019-03-19T10:02:03.096Z,5.63
2019-03-19T10:04:33.545Z,5.13
2019-03-19T10:07:06.311Z,6.83
2019-03-19T10:09:36.018Z,6.73
2019-03-19T10:12:06.567Z,5.53
2019-03-19T10:14:40.469Z,5.80
2019-03-19T10:17:11.070Z,6.90
2019-03-19T10:19:41.528Z,7.47
2019-03-19T10:22:15.230Z,5.63
2019-03-19T10:24:45.627Z,5.67
2019-03-19T10:27:19.696Z,5.73
2019-03-19T10:29:50.449Z,5.07
2019-03-19T10:32:20.839Z,5.10
2019-03-19T10:34:51.294Z,6.40
2019-03-19T10:37:23.401Z,6.37
2019-03-19T10:39:53.788Z,6.60
2019-03-19T10:42:24.195Z,5.10
2019-03-19T10:44:54.728Z,5.27
2019-03-19T10:47:25.107Z,6.05
2019-03-19T10:49:55.509Z,6.10
2019-03-19T10:52:25.995Z,4.73
2019-03-19T10:54:56.367Z,5.03
2019-03-19T10:57:26.841Z,5.53
2019-03-19T11:00:02.817Z,5.17
2019-03-19T11:02:33.264Z,5.07
2019-03-19T11:05:04.623Z,4.33
2019-03-19T11:07:35.088Z,4.47
2019-03-19T11:10:08.721Z,5.10
2019-03-19T11:12:39.177Z,4.90
2019-03-19T11:15:26.611Z,5.20
2019-03-19T11:17:57.032Z,4.77
2019-03-19T11:20:27.417Z,4.80
2019-03-19T11:22:57.827Z,6.07
2019-03-19T11:25:30.437Z,5.07
2019-03-19T11:28:02.353Z,5.17
2019-03-19T11:30:33.098Z,5.03
2019-03-19T11:33:03.666Z,5.57
2019-03-19T11:35:34.051Z,5.70
2019-03-19T11:38:04.551Z,6.57
2019-03-19T11:40:34.923Z,5.83
2019-03-19T11:43:05.669Z,5.57
2019-03-19T11:45:36.031Z,6.00
2019-03-19T11:48:06.644Z,5.40
2019-03-19T11:50:37.004Z,6.50
2019-03-19T11:53:07.398Z,5.90
2019-03-19T11:55:37.799Z,5.63
2019-03-19T11:58:08.262Z,7.33
2019-03-19T12:00:40.250Z,7.15
2019-03-19T12:03:15.835Z,6.30
2019-03-19T12:05:43.318Z,6.23
2019-03-19T12:08:13.696Z,5.60
2019-03-19T12:10:47.048Z,5.10
2019-03-19T12:13:17.515Z,5.43
2019-03-19T12:15:48.041Z,6.50
2019-03-19T12:18:18.393Z,6.33
2019-03-19T12:20:48.990Z,5.30
2019-03-19T12:23:19.470Z,6.50
2019-03-19T12:25:50.129Z,6.40
2019-03-19T12:28:20.640Z,6.10
2019-03-19T12:30:51.088Z,6.60
2019-03-19T12:33:21.475Z,6.23
2019-03-19T12:35:51.922Z,6.93
2019-03-19T12:38:22.315Z,8.00
2019-03-19T12:40:52.740Z,6.50
2019-03-19T12:43:23.168Z,6.27
2019-03-19T12:45:54.268Z,6.23
2019-03-19T12:48:24.672Z,6.13
2019-03-19T12:50:55.160Z,6.30
2019-03-19T12:53:25.617Z,7.13
2019-03-19T12:55:56.180Z,6.17
2019-03-19T12:58:26.648Z,5.47
2019-03-19T13:00:57.078Z,5.53
2019-03-19T13:03:27.494Z,5.97
2019-03-19T13:05:59.252Z,6.13
2019-03-19T13:08:29.683Z,6.25
2019-03-19T13:11:00.072Z,5.30
2019-03-19T13:13:30.500Z,6.00
2019-03-19T13:16:01.041Z,5.77
2019-03-19T13:18:31.467Z,6.33
2019-03-19T13:21:01.823Z,6.33
2019-03-19T13:23:33.665Z,5.50
2019-03-19T13:26:04.067Z,5.80
2019-03-19T13:28:34.522Z,5.63
2019-03-19T13:31:04.864Z,5.17
2019-03-19T13:33:35.282Z,5.43
2019-03-19T13:36:08.031Z,5.90
2019-03-19T13:38:38.472Z,6.27
2019-03-19T13:41:08.872Z,6.60
2019-03-19T13:43:39.261Z,5.60
2019-03-19T13:46:09.684Z,6.20
2019-03-19T13:48:40.098Z,6.13
2019-03-19T13:51:10.534Z,7.57
2019-03-19T13:53:41.000Z,7.50
2019-03-19T13:56:11.385Z,6.87
2019-03-19T13:58:41.724Z,7.27
2019-03-19T14:01:12.219Z,7.67
2019-03-19T14:03:42.614Z,7.30
2019-03-19T14:06:13.031Z,7.67
2019-03-19T14:08:43.521Z,7.37
2019-03-19T14:11:13.902Z,6.27
2019-03-19T14:13:44.345Z,7.45
2019-03-19T14:16:14.811Z,9.80
2019-03-19T14:18:45.292Z,8.90
2019-03-19T14:21:15.759Z,7.80
2019-03-19T14:23:46.205Z,10.33
2019-03-19T14:26:16.718Z,7.27
2019-03-19T14:28:47.107Z,8.60
2019-03-19T14:31:17.630Z,8.13
2019-03-19T14:33:48.096Z,9.57
2019-03-19T14:36:18.622Z,7.83
2019-03-19T14:38:49.030Z,7.60
2019-03-19T14:41:19.473Z,7.60
2019-03-19T14:43:49.877Z,8.73
2019-03-19T14:46:20.276Z,8.30
2019-03-19T14:48:50.653Z,8.67
2019-03-19T14:51:21.054Z,9.40
2019-03-19T14:53:51.566Z,9.13
2019-03-19T14:56:22.032Z,9.07
2019-03-19T14:58:52.456Z,8.60
2019-03-19T15:01:22.853Z,9.63
2019-03-19T15:03:53.479Z,9.37
2019-03-19T15:06:23.938Z,9.43
2019-03-19T15:08:54.337Z,9.40
2019-03-19T15:11:24.765Z,9.53
2019-03-19T15:13:55.379Z,11.15
2019-03-19T15:16:26.542Z,10.73
2019-03-19T15:18:57.006Z,11.30
2019-03-19T15:21:31.450Z,10.80
2019-03-19T15:24:02.146Z,11.40
2019-03-19T15:26:32.649Z,11.97
2019-03-19T15:29:03.087Z,12.13
2019-03-19T15:31:33.525Z,13.17
2019-03-19T15:34:03.954Z,12.80
2019-03-19T15:36:34.655Z,11.13
2019-03-19T15:39:07.422Z,16.52
2019-03-19T15:41:37.929Z,14.43
2019-03-19T15:44:08.422Z,13.20
2019-03-19T15:46:38.818Z,15.83
2019-03-19T15:49:09.252Z,17.63
2019-03-19T15:51:39.745Z,23.10
2019-03-19T15:54:11.084Z,21.53
2019-03-19T15:56:41.527Z,22.57
2019-03-19T15:59:11.985Z,23.47
2019-03-19T16:01:42.533Z,24.30
2019-03-19T16:04:13.075Z,25.47
2019-03-19T16:06:43.512Z,26.10
2019-03-19T16:09:13.977Z,29.43
2019-03-19T16:11:44.417Z,46.07
2019-03-19T16:14:14.791Z,46.60
2019-03-19T16:16:45.336Z,54.23
2019-03-19T16:19:15.966Z,50.43
2019-03-19T16:21:49.252Z,51.73
2019-03-19T16:24:19.629Z,54.50
2019-03-19T16:26:50.227Z,42.87
2019-03-19T16:29:20.718Z,44.23
2019-03-19T16:31:51.399Z,42.37
2019-03-19T16:34:21.820Z,44.63
2019-03-19T16:36:52.259Z,41.23
2019-03-19T16:39:22.755Z,38.17
2019-03-19T16:41:53.236Z,37.98
2019-03-19T16:44:23.607Z,34.07
2019-03-19T16:46:54.118Z,31.47
2019-03-19T16:49:24.526Z,32.13
2019-03-19T16:51:54.955Z,32.23
2019-03-19T16:54:25.323Z,32.87
2019-03-19T16:56:55.763Z,30.37
2019-03-19T16:59:26.231Z,33.30
2019-03-19T17:02:01.784Z,33.13
2019-03-19T17:04:28.766Z,30.47
2019-03-19T17:06:59.187Z,26.90
2019-03-19T17:09:29.553Z,29.00
2019-03-19T17:12:00.007Z,31.57
2019-03-19T17:14:30.471Z,28.20
2019-03-19T17:17:03.287Z,27.57
2019-03-19T17:19:33.725Z,29.53
2019-03-19T17:22:04.258Z,32.77
2019-03-19T17:24:34.674Z,31.67
2019-03-19T17:27:05.549Z,32.07
2019-03-19T17:29:36.112Z,27.80
2019-03-19T17:32:12.983Z,28.80
2019-03-19T17:34:43.244Z,30.50
2019-03-19T17:37:13.755Z,31.67
2019-03-19T17:39:49.803Z,29.53
2019-03-19T17:42:20.229Z,35.10
2019-03-19T17:44:56.182Z,38.93
2019-03-19T17:47:28.310Z,42.47
2019-03-19T17:49:58.715Z,48.50
2019-03-19T17:52:29.187Z,44.70
2019-03-19T17:54:59.642Z,47.00
2019-03-19T17:57:30.276Z,43.07
2019-03-19T18:00:00.706Z,40.17
2019-03-19T18:02:31.328Z,38.23
2019-03-19T18:05:01.845Z,36.50
2019-03-19T18:07:32.387Z,40.67
2019-03-19T18:10:02.809Z,40.57
2019-03-19T18:12:33.335Z,34.60
2019-03-19T18:15:08.697Z,36.83
2019-03-19T18:17:53.194Z,37.53
2019-03-19T18:20:31.094Z,31.93
2019-03-19T18:23:07.011Z,41.50
2019-03-19T18:25:38.197Z,47.30
2019-03-19T18:28:08.717Z,36.87
2019-03-19T18:30:40.888Z,43.87
2019-03-19T18:33:11.421Z,37.27
2019-03-19T18:35:41.749Z,36.27
2019-03-19T18:38:12.204Z,35.03
2019-03-19T18:40:42.611Z,38.93
2019-03-19T18:43:13.053Z,41.80
2019-03-19T18:45:43.584Z,35.63
2019-03-19T18:48:16.998Z,34.50
2019-03-19T18:50:58.257Z,41.70
2019-03-19T18:53:30.930Z,37.33
2019-03-19T19:02:30.158Z,45.43
2019-03-19T19:05:19.373Z,51.07
2019-03-19T19:07:50.408Z,37.77
2019-03-19T19:10:21.659Z,39.87
2019-03-19T19:12:53.246Z,36.93
2019-03-19T19:15:27.149Z,38.67
2019-03-19T19:18:02.239Z,39.90
2019-03-19T19:20:34.250Z,43.97
2019-03-19T19:23:08.855Z,48.90
2019-03-19T19:25:45.071Z,50.27
2019-03-19T19:28:17.193Z,52.43
2019-03-19T19:30:49.659Z,50.20
2019-03-19T19:33:19.803Z,52.03
2019-03-19T19:35:51.718Z,49.27
2019-03-19T19:38:22.134Z,55.83
2019-03-19T19:40:52.551Z,51.17
2019-03-19T19:43:23.407Z,41.27
2019-03-19T19:45:55.372Z,41.83
2019-03-19T19:48:25.899Z,49.53
2019-03-19T19:50:56.306Z,47.60
2019-03-19T19:53:26.673Z,41.30
2019-03-19T19:55:57.358Z,38.60
2019-03-19T19:58:27.821Z,35.30
2019-03-19T20:00:59.734Z,32.90
2019-03-19T20:03:30.129Z,32.50
2019-03-19T20:06:00.505Z,39.48
2019-03-19T20:08:30.945Z,32.57
2019-03-19T20:11:03.671Z,43.90
2019-03-19T20:13:34.096Z,29.17
2019-03-19T20:16:04.673Z,28.83
2019-03-19T20:18:35.219Z,29.50
2019-03-19T20:21:05.673Z,30.30
2019-03-19T20:23:36.218Z,28.13
2019-03-19T20:26:06.730Z,28.97
2019-03-19T20:28:37.284Z,27.40
2019-03-19T20:31:07.704Z,23.50
2019-03-19T20:33:38.340Z,20.70
2019-03-19T20:36:09.115Z,20.00
2019-03-19T20:38:41.358Z,18.57
2019-03-19T20:41:13.248Z,17.80
2019-03-19T20:43:43.679Z,19.23
2019-03-19T20:46:16.987Z,19.32
2019-03-19T20:48:47.537Z,20.03
2019-03-19T20:51:18.032Z,24.43
2019-03-19T20:53:49.775Z,27.17
2019-03-19T20:56:20.257Z,27.30
2019-03-19T20:58:54.915Z,28.77
2019-03-19T21:01:26.903Z,25.40
2019-03-19T21:03:57.327Z,20.57
2019-03-19T21:06:27.851Z,18.40
2019-03-19T21:08:58.324Z,18.53
2019-03-19T21:11:28.707Z,17.63
2019-03-19T21:13:59.182Z,18.43
2019-03-19T21:16:29.547Z,19.27
2019-03-19T21:18:59.950Z,23.37
2019-03-19T21:21:30.357Z,20.37
2019-03-19T21:24:00.821Z,23.60
2019-03-19T21:26:31.314Z,24.23
2019-03-19T21:29:01.890Z,24.53
2019-03-19T21:31:32.240Z,28.20
2019-03-19T21:34:02.838Z,26.57
2019-03-19T21:36:33.215Z,22.80
2019-03-19T21:39:05.402Z,27.00
2019-03-19T21:41:35.799Z,34.37
2019-03-19T21:44:06.279Z,39.10
2019-03-19T21:46:36.723Z,38.93
2019-03-19T21:49:07.129Z,28.73
2019-03-19T21:51:37.624Z,23.10
2019-03-19T21:54:08.027Z,33.18
2019-03-19T21:56:38.477Z,22.73
2019-03-19T21:59:11.749Z,29.77
2019-03-19T22:01:42.149Z,26.63
2019-03-19T22:04:12.629Z,25.60
2019-03-19T22:06:43.048Z,23.73
2019-03-19T22:09:13.445Z,23.17
2019-03-19T22:11:43.944Z,24.03
2019-03-19T22:14:14.421Z,24.47
2019-03-19T22:16:44.865Z,25.00
2019-03-19T22:19:15.303Z,25.40
2019-03-19T22:21:45.687Z,26.00
2019-03-19T22:24:16.069Z,33.98
2019-03-19T22:26:46.554Z,29.23
2019-03-19T22:29:16.935Z,26.03
2019-03-19T22:31:48.340Z,25.87
2019-03-19T22:34:18.785Z,26.30
2019-03-19T22:36:49.285Z,28.77
2019-03-19T22:39:19.669Z,26.07
2019-03-19T22:41:50.125Z,31.30
2019-03-19T22:44:20.571Z,27.90
2019-03-19T22:46:51.009Z,27.17
2019-03-19T22:49:21.481Z,24.93
2019-03-19T22:51:51.943Z,25.00
2019-03-19T22:54:23.990Z,23.90
2019-03-19T22:56:54.395Z,23.07
2019-03-19T22:59:24.814Z,22.53
2019-03-19T23:01:55.241Z,23.50
2019-03-19T23:04:27.548Z,21.30
2019-03-19T23:06:57.767Z,22.87
2019-03-19T23:09:28.199Z,24.37
2019-03-19T23:11:58.630Z,23.53
2019-03-19T23:14:29.049Z,27.13
2019-03-19T23:16:59.465Z,25.63
2019-03-19T23:19:29.906Z,25.03
2019-03-19T23:22:00.339Z,26.00
2019-03-19T23:24:30.723Z,27.17
2019-03-19T23:27:01.791Z,26.57
2019-03-19T23:29:32.177Z,29.23
2019-03-19T23:32:02.543Z,32.42
2019-03-19T23:34:38.584Z,26.97
2019-03-19T23:37:05.015Z,27.90
2019-03-19T23:39:35.455Z,27.17
2019-03-19T23:42:05.855Z,26.83
2019-03-19T23:44:36.280Z,27.10
2019-03-19T23:47:06.684Z,26.77
2019-03-19T23:49:37.067Z,27.90
2019-03-19T23:52:07.625Z,26.63
2019-03-19T23:54:38.049Z,25.60
2019-03-19T23:57:08.475Z,25.10
2019-03-19T23:59:38.939Z,24.93
